Time,TemperatureF,DewpointF,PressureIn,WindDirection,WindDirectionDegrees,WindSpeedMPH,WindSpeedGustMPH,Humidity,HourlyPrecipIn,Conditions,Clouds,dailyrainin,SolarRadiationWatts/m^2,SoftwareType,DateUTC
2013-07-10 00:01:00,69.0,42.0,-100.00,South,171,7.0,16.0,37,0.00,,,0.00,0.000000,,2013-07-10 06:01:00,
2013-07-10 00:11:00,69.0,42.0,-100.00,South,171,7.0,16.0,37,0.00,,,0.00,0.000000,,2013-07-10 06:11:00,
2013-07-10 00:42:00,67.0,42.0,-100.00,SE,135,5.0,10.0,40,0.00,,,0.00,0.000000,,2013-07-10 06:42:00,
2013-07-10 00:52:00,67.0,42.0,-100.00,SE,135,5.0,10.0,40,0.00,,,0.00,0.000000,,2013-07-10 06:52:00,
2013-07-10 01:01:00,67.0,42.0,-100.00,SE,135,5.0,10.0,40,0.00,,,0.00,0.000000,,2013-07-10 07:01:00,
2013-07-10 01:11:00,67.0,42.0,-100.00,SE,135,5.0,10.0,40,0.00,,,0.00,0.000000,,2013-07-10 07:11:00,
2013-07-10 01:43:00,67.0,43.0,-100.00,ESE,106,6.0,9.0,41,0.00,,,0.00,0.000000,,2013-07-10 07:43:00,
2013-07-10 01:53:00,67.0,43.0,-100.00,ESE,106,6.0,9.0,41,0.00,,,0.00,0.000000,,2013-07-10 07:53:00,
2013-07-10 02:01:00,67.0,43.0,-100.00,ESE,106,6.0,9.0,41,0.00,,,0.00,0.000000,,2013-07-10 08:01:00,
2013-07-10 02:11:00,67.0,43.0,-100.00,ESE,106,6.0,9.0,41,0.00,,,0.00,0.000000,,2013-07-10 08:11:00,
2013-07-10 02:12:00,66.0,42.0,-100.00,ESE,112,9.0,12.0,41,0.00,,,0.00,0.000000,,2013-07-10 08:12:00,
2013-07-10 02:33:00,66.0,42.0,-100.00,ESE,112,9.0,12.0,41,0.00,,,0.00,0.000000,,2013-07-10 08:33:00,
2013-07-10 02:42:00,66.0,42.0,-100.00,ESE,112,9.0,12.0,41,0.00,,,0.00,0.000000,,2013-07-10 08:42:00,
2013-07-10 02:53:00,66.0,42.0,-100.00,ESE,112,9.0,12.0,41,0.00,,,0.00,0.000000,,2013-07-10 08:53:00,
2013-07-10 03:02:00,66.0,42.0,-100.00,ESE,112,9.0,12.0,41,0.00,,,0.00,0.000000,,2013-07-10 09:02:00,
2013-07-10 03:12:00,65.0,42.0,-100.00,SE,132,9.0,13.0,43,0.00,,,0.00,0.000000,,2013-07-10 09:12:00,
2013-07-10 03:43:00,65.0,42.0,-100.00,SE,132,9.0,13.0,43,0.00,,,0.00,0.000000,,2013-07-10 09:43:00,
2013-07-10 03:53:00,65.0,42.0,-100.00,SE,132,9.0,13.0,43,0.00,,,0.00,0.000000,,2013-07-10 09:53:00,
2013-07-10 04:01:00,65.0,42.0,-100.00,SE,132,9.0,13.0,43,0.00,,,0.00,0.000000,,2013-07-10 10:01:00,
2013-07-10 04:51:00,-999.0,-99.9,-100.00,South,173,5.0,12.0,-999,-99.99,,,-99.99,0.000000,,2013-07-10 10:51:00,
2013-07-10 05:00:00,-999.0,-99.9,-100.00,South,173,5.0,12.0,-999,-99.99,,,-99.99,0.000000,,2013-07-10 11:00:00,
2013-07-10 05:11:00,63.0,42.0,-100.00,South,173,5.0,12.0,46,0.00,,,0.00,0.000000,,2013-07-10 11:11:00,
2013-07-10 08:43:00,70.0,46.0,-100.00,ESE,107,6.0,10.0,43,-99.99,,,0.00,231.000000,,2013-07-10 14:43:00,
2013-07-10 08:53:00,70.0,46.0,-100.00,ESE,107,6.0,10.0,43,-99.99,,,0.00,231.000000,,2013-07-10 14:53:00,
2013-07-10 09:01:00,70.0,46.0,-100.00,ESE,107,6.0,10.0,43,-99.99,,,0.00,231.000000,,2013-07-10 15:01:00,
2013-07-10 09:11:00,70.0,46.0,-100.00,ESE,107,6.0,10.0,43,-99.99,,,0.00,231.000000,,2013-07-10 15:11:00,
2013-07-10 09:43:00,74.0,48.0,-100.00,ESE,118,8.0,12.0,40,0.00,,,0.00,430.000000,,2013-07-10 15:43:00,
2013-07-10 09:52:00,74.0,48.0,-100.00,ESE,118,8.0,12.0,40,0.00,,,0.00,430.000000,,2013-07-10 15:52:00,
2013-07-10 10:01:00,74.0,48.0,-100.00,ESE,118,8.0,12.0,40,0.00,,,0.00,430.000000,,2013-07-10 16:01:00,
2013-07-10 10:11:00,74.0,48.0,-100.00,ESE,118,8.0,12.0,40,0.00,,,0.00,430.000000,,2013-07-10 16:11:00,
2013-07-10 10:44:00,76.0,48.0,-100.00,SE,137,6.0,13.0,37,0.00,,,0.00,605.000000,,2013-07-10 16:44:00,
2013-07-10 10:53:00,76.0,48.0,-100.00,SE,137,6.0,13.0,37,0.00,,,0.00,605.000000,,2013-07-10 16:53:00,
2013-07-10 11:02:00,76.0,48.0,-100.00,SE,137,6.0,13.0,37,0.00,,,0.00,605.000000,,2013-07-10 17:02:00,
2013-07-10 11:11:00,76.0,48.0,-100.00,SE,137,6.0,13.0,37,0.00,,,0.00,605.000000,,2013-07-10 17:11:00,
2013-07-10 11:43:00,80.0,47.0,-100.00,SSE,166,7.0,11.0,31,0.00,,,0.00,756.000000,,2013-07-10 17:43:00,
2013-07-10 11:53:00,80.0,47.0,-100.00,SSE,166,7.0,11.0,31,0.00,,,0.00,756.000000,,2013-07-10 17:53:00,
2013-07-10 12:02:00,80.0,47.0,-100.00,SSE,166,7.0,11.0,31,0.00,,,0.00,756.000000,,2013-07-10 18:02:00,
2013-07-10 12:11:00,80.0,47.0,-100.00,SSE,166,7.0,11.0,31,0.00,,,0.00,756.000000,,2013-07-10 18:11:00,
2013-07-10 12:44:00,86.0,49.0,-100.00,SSE,153,5.0,12.0,28,0.00,,,0.00,864.000000,,2013-07-10 18:44:00,
2013-07-10 12:53:00,86.0,49.0,-100.00,SSE,153,5.0,12.0,28,0.00,,,0.00,864.000000,,2013-07-10 18:53:00,
2013-07-10 13:01:00,86.0,49.0,-100.00,SSE,153,5.0,12.0,28,0.00,,,0.00,864.000000,,2013-07-10 19:01:00,
2013-07-10 13:11:00,86.0,49.0,-100.00,SSE,153,5.0,12.0,28,0.00,,,0.00,864.000000,,2013-07-10 19:11:00,
2013-07-10 13:32:00,85.0,45.0,-100.00,WSW,253,7.0,14.0,25,0.00,,,0.00,945.000000,,2013-07-10 19:32:00,
2013-07-10 13:42:00,85.0,45.0,-100.00,WSW,253,7.0,14.0,25,0.00,,,0.00,945.000000,,2013-07-10 19:42:00,
2013-07-10 13:53:00,85.0,45.0,-100.00,WSW,253,7.0,14.0,25,0.00,,,0.00,945.000000,,2013-07-10 19:53:00,
2013-07-10 14:01:00,85.0,45.0,-100.00,WSW,253,7.0,14.0,25,0.00,,,0.00,945.000000,,2013-07-10 20:01:00,
2013-07-10 14:11:00,85.0,45.0,-100.00,WSW,253,7.0,14.0,25,0.00,,,0.00,945.000000,,2013-07-10 20:11:00,
2013-07-10 14:32:00,87.0,45.0,-100.00,West,263,6.0,12.0,23,0.00,,,0.00,555.000000,,2013-07-10 20:32:00,
2013-07-10 14:43:00,87.0,45.0,-100.00,West,263,6.0,12.0,23,0.00,,,0.00,555.000000,,2013-07-10 20:43:00,
2013-07-10 14:52:00,87.0,45.0,-100.00,West,263,6.0,12.0,23,0.00,,,0.00,555.000000,,2013-07-10 20:52:00,
2013-07-10 15:01:00,87.0,45.0,-100.00,West,263,6.0,12.0,23,0.00,,,0.00,555.000000,,2013-07-10 21:01:00,
2013-07-10 15:11:00,87.0,45.0,-100.00,West,263,6.0,12.0,23,0.00,,,0.00,555.000000,,2013-07-10 21:11:00,
2013-07-10 15:42:00,88.0,41.0,-100.00,West,272,4.0,12.0,19,0.00,,,0.00,845.000000,,2013-07-10 21:42:00,
2013-07-10 15:52:00,88.0,41.0,-100.00,West,272,4.0,12.0,19,0.00,,,0.00,845.000000,,2013-07-10 21:52:00,
2013-07-10 16:43:00,81.0,36.0,-100.00,North,11,7.0,16.0,20,-99.99,,,0.00,517.000000,,2013-07-10 22:43:00,
2013-07-10 16:53:00,81.0,36.0,-100.00,North,11,7.0,16.0,20,-99.99,,,0.00,517.000000,,2013-07-10 22:53:00,
2013-07-10 17:01:00,81.0,36.0,-100.00,North,11,7.0,16.0,20,-99.99,,,0.00,517.000000,,2013-07-10 23:01:00,
2013-07-10 17:11:00,81.0,36.0,-100.00,North,11,7.0,16.0,20,-99.99,,,0.00,517.000000,,2013-07-10 23:11:00,
2013-07-10 17:52:00,61.0,52.0,-100.00,SE,143,13.0,27.0,73,0.05,,,0.05,46.000000,,2013-07-10 23:52:00,
2013-07-10 18:43:00,57.0,53.0,-100.00,South,171,13.0,26.0,88,0.02,,,0.07,84.000000,,2013-07-11 00:43:00,
2013-07-10 18:52:00,57.0,53.0,-100.00,South,171,13.0,26.0,88,0.02,,,0.07,84.000000,,2013-07-11 00:52:00,
2013-07-10 19:11:00,57.0,53.0,-100.00,South,171,13.0,26.0,88,0.02,,,0.07,84.000000,,2013-07-11 01:11:00,
2013-07-10 19:43:00,58.0,52.0,-100.00,SE,134,10.0,21.0,81,0.00,,,0.07,37.000000,,2013-07-11 01:43:00,
2013-07-10 19:52:00,58.0,52.0,-100.00,SE,134,10.0,21.0,81,0.00,,,0.07,37.000000,,2013-07-11 01:52:00,
2013-07-10 20:02:00,58.0,52.0,-100.00,SE,134,10.0,21.0,81,0.00,,,0.07,37.000000,,2013-07-11 02:02:00,
2013-07-10 20:11:00,58.0,52.0,-100.00,SE,134,10.0,21.0,81,0.00,,,0.07,37.000000,,2013-07-11 02:11:00,
2013-07-10 20:32:00,59.0,51.0,-100.00,SE,138,13.0,16.0,74,0.00,,,0.07,25.000000,,2013-07-11 02:32:00,
2013-07-10 20:43:00,59.0,51.0,-100.00,SE,138,13.0,16.0,74,0.00,,,0.07,25.000000,,2013-07-11 02:43:00,
2013-07-10 20:53:00,59.0,51.0,-100.00,SE,138,13.0,16.0,74,0.00,,,0.07,25.000000,,2013-07-11 02:53:00,
2013-07-10 21:01:00,59.0,51.0,-100.00,SE,138,13.0,16.0,74,0.00,,,0.07,25.000000,,2013-07-11 03:01:00,
2013-07-10 21:11:00,59.0,51.0,-100.00,SE,138,13.0,16.0,74,0.00,,,0.07,25.000000,,2013-07-11 03:11:00,
2013-07-10 21:12:00,61.0,46.0,-100.00,SE,138,7.0,15.0,58,0.00,,,0.07,7.000000,,2013-07-11 03:12:00,
2013-07-10 21:33:00,61.0,46.0,-100.00,SE,138,7.0,15.0,58,0.00,,,0.07,7.000000,,2013-07-11 03:33:00,
2013-07-10 21:42:00,61.0,46.0,-100.00,SE,138,7.0,15.0,58,0.00,,,0.07,7.000000,,2013-07-11 03:42:00,
2013-07-10 21:52:00,61.0,46.0,-100.00,SE,138,7.0,15.0,58,0.00,,,0.07,7.000000,,2013-07-11 03:52:00,
2013-07-10 22:01:00,61.0,46.0,-100.00,SE,138,7.0,15.0,58,0.00,,,0.07,7.000000,,2013-07-11 04:01:00,
2013-07-10 22:12:00,60.0,50.0,-100.00,North,8,8.0,17.0,70,0.00,,,0.07,0.000000,,2013-07-11 04:12:00,
2013-07-10 22:43:00,60.0,50.0,-100.00,North,8,8.0,17.0,70,0.00,,,0.07,0.000000,,2013-07-11 04:43:00,
2013-07-10 22:53:00,60.0,50.0,-100.00,North,8,8.0,17.0,70,0.00,,,0.07,0.000000,,2013-07-11 04:53:00,
2013-07-10 23:01:00,60.0,50.0,-100.00,North,8,8.0,17.0,70,0.00,,,0.07,0.000000,,2013-07-11 05:01:00,
2013-07-10 23:43:00,60.0,48.0,-100.00,NNW,338,9.0,14.0,64,0.00,,,0.07,0.000000,,2013-07-11 05:43:00,
2013-07-10 23:52:00,60.0,48.0,-100.00,NNW,338,9.0,14.0,64,0.00,,,0.07,0.000000,,2013-07-11 05:52:00,